createdAt,value
2023-03-10T00:01:17.656Z,0.50
2023-03-10T00:04:12.641Z,0.20
2023-03-10T00:07:06.981Z,0.20
2023-03-10T00:10:01.452Z,0.10
2023-03-10T00:12:55.757Z,0.10
2023-03-10T00:15:51.219Z,0.30
2023-03-10T00:18:46.551Z,0.40
2023-03-10T00:21:40.911Z,0.20
2023-03-10T00:24:36.007Z,0.32
2023-03-10T00:27:30.661Z,0.30
2023-03-10T00:30:25.001Z,0.38
2023-03-10T00:33:19.394Z,0.30
2023-03-10T00:36:16.695Z,0.40
2023-03-10T00:39:12.022Z,0.30
2023-03-10T00:42:06.678Z,0.63
2023-03-10T00:45:01.137Z,0.40
2023-03-10T00:47:55.515Z,0.28
2023-03-10T00:50:50.322Z,0.35
2023-03-10T00:53:45.560Z,0.20
2023-03-10T00:56:40.271Z,0.30
2023-03-10T00:59:47.798Z,0.40
2023-03-10T01:02:44.147Z,0.30
2023-03-10T01:05:38.489Z,0.30
2023-03-10T01:08:32.857Z,0.30
2023-03-10T01:11:30.120Z,0.30
2023-03-10T01:14:24.575Z,0.43
2023-03-10T01:17:18.824Z,0.20
2023-03-10T01:20:16.591Z,0.30
2023-03-10T01:23:24.464Z,0.20
2023-03-10T01:26:19.064Z,0.20
2023-03-10T01:29:13.340Z,0.30
2023-03-10T01:32:08.197Z,0.20
2023-03-10T01:35:02.334Z,0.60
2023-03-10T01:37:56.610Z,0.47
2023-03-10T01:40:52.404Z,0.73
2023-03-10T01:43:51.739Z,0.32
2023-03-10T01:46:47.749Z,0.30
2023-03-10T01:49:48.383Z,0.50
2023-03-10T01:52:45.176Z,0.32
2023-03-10T01:55:47.856Z,0.20
2023-03-10T01:58:46.386Z,0.20
2023-03-10T02:01:41.223Z,0.20
2023-03-10T02:04:44.638Z,0.30
2023-03-10T02:07:41.331Z,0.30
2023-03-10T02:10:35.709Z,0.20
2023-03-10T02:13:29.958Z,0.35
2023-03-10T02:16:25.176Z,0.30
2023-03-10T02:19:46.269Z,0.22
2023-03-10T02:22:43.680Z,0.40
2023-03-10T02:25:40.992Z,0.35
2023-03-10T02:28:35.132Z,0.22
2023-03-10T02:31:30.861Z,0.30
2023-03-10T02:34:27.180Z,0.40
2023-03-10T02:37:32.531Z,0.30
2023-03-10T02:40:39.265Z,0.40
2023-03-10T02:43:36.806Z,0.40
2023-03-10T02:46:31.111Z,0.30
2023-03-10T02:49:26.947Z,0.20
2023-03-10T02:52:29.159Z,0.28
2023-03-10T02:55:24.520Z,0.20
2023-03-10T02:58:19.687Z,0.40
2023-03-10T03:01:14.543Z,0.20
2023-03-10T03:04:09.090Z,0.30
2023-03-10T03:07:03.467Z,0.30
2023-03-10T03:09:58.146Z,0.30
2023-03-10T03:12:52.653Z,0.38
2023-03-10T03:15:46.948Z,0.20
2023-03-10T03:18:42.115Z,0.40
2023-03-10T03:21:36.647Z,0.20
2023-03-10T03:24:33.209Z,0.50
2023-03-10T03:27:28.377Z,0.30
2023-03-10T03:30:26.034Z,0.20
2023-03-10T03:33:20.385Z,0.20
2023-03-10T03:36:15.462Z,0.40
2023-03-10T03:39:10.459Z,0.47
2023-03-10T03:42:05.897Z,0.28
2023-03-10T03:45:00.574Z,0.10
2023-03-10T03:47:55.407Z,0.20
2023-03-10T03:50:50.954Z,0.28
2023-03-10T03:53:45.300Z,0.28
2023-03-10T03:56:42.788Z,0.30
2023-03-10T03:59:37.631Z,0.30
2023-03-10T04:02:31.838Z,0.30
2023-03-10T04:05:26.194Z,0.30
2023-03-10T04:08:20.411Z,0.28
2023-03-10T04:11:14.562Z,0.20
2023-03-10T04:14:08.780Z,0.10
2023-03-10T04:17:03.002Z,0.40
2023-03-10T04:20:06.715Z,0.30
2023-03-10T04:23:03.288Z,0.20
2023-03-10T04:25:57.517Z,0.20
2023-03-10T04:28:52.220Z,0.32
2023-03-10T04:31:55.855Z,0.40
2023-03-10T04:34:59.125Z,0.20
2023-03-10T04:37:53.374Z,0.20
2023-03-10T04:40:47.589Z,0.30
2023-03-10T04:43:42.977Z,0.32
2023-03-10T04:46:38.386Z,0.15
2023-03-10T04:49:32.947Z,0.35
2023-03-10T04:52:27.241Z,0.40
2023-03-10T04:55:21.474Z,0.40
2023-03-10T04:58:15.727Z,0.35
2023-03-10T05:01:15.144Z,0.43
2023-03-10T05:04:09.517Z,0.20
2023-03-10T05:07:03.805Z,0.40
2023-03-10T05:09:58.183Z,0.40
2023-03-10T05:12:52.306Z,0.20
2023-03-10T05:15:46.647Z,0.30
2023-03-10T05:18:40.789Z,0.52
2023-03-10T05:21:35.577Z,0.28
2023-03-10T05:24:29.714Z,0.30
2023-03-10T05:27:23.995Z,0.22
2023-03-10T05:30:18.616Z,0.30
2023-03-10T05:33:12.845Z,0.17
2023-03-10T05:36:09.187Z,0.20
2023-03-10T05:39:03.547Z,0.40
2023-03-10T05:41:57.736Z,0.30
2023-03-10T05:44:52.015Z,0.30
2023-03-10T05:47:49.563Z,0.20
2023-03-10T05:50:43.982Z,0.30
2023-03-10T05:53:39.264Z,0.20
2023-03-10T05:56:33.525Z,0.30
2023-03-10T05:59:28.852Z,0.22
2023-03-10T06:02:23.124Z,0.25
2023-03-10T06:05:17.307Z,0.10
2023-03-10T06:08:11.597Z,0.40
2023-03-10T06:11:06.626Z,0.28
2023-03-10T06:14:00.913Z,0.25
2023-03-10T06:16:58.305Z,0.20
2023-03-10T06:19:53.681Z,0.20
2023-03-10T06:22:47.819Z,0.20
2023-03-10T06:25:42.081Z,0.30
2023-03-10T06:28:39.222Z,0.30
2023-03-10T06:31:34.120Z,0.38
2023-03-10T06:34:28.444Z,0.22
2023-03-10T06:37:22.800Z,0.20
2023-03-10T06:40:17.170Z,0.10
2023-03-10T06:43:11.354Z,0.30
2023-03-10T06:46:07.736Z,0.20
2023-03-10T06:49:02.023Z,0.20
2023-03-10T06:51:56.318Z,0.17
2023-03-10T06:54:50.711Z,0.17
2023-03-10T06:57:45.032Z,0.30
2023-03-10T07:00:40.972Z,0.40
2023-03-10T07:03:36.012Z,0.40
2023-03-10T07:06:31.547Z,0.30
2023-03-10T07:09:25.806Z,0.20
2023-03-10T07:12:20.034Z,0.30
2023-03-10T07:15:14.359Z,0.35
2023-03-10T07:18:08.735Z,0.30
2023-03-10T07:21:02.979Z,0.30
2023-03-10T07:23:57.289Z,0.50
2023-03-10T07:26:51.897Z,0.40
2023-03-10T07:29:46.141Z,0.55
2023-03-10T07:32:40.528Z,0.63
2023-03-10T07:35:36.793Z,0.52
2023-03-10T07:38:31.303Z,0.73
2023-03-10T07:41:25.607Z,0.45
2023-03-10T07:44:19.930Z,0.70
2023-03-10T07:47:14.267Z,1.33
2023-03-10T07:50:08.899Z,0.50
2023-03-10T07:53:03.288Z,0.63
2023-03-10T07:55:58.021Z,0.77
2023-03-10T07:58:52.250Z,0.80
2023-03-10T08:01:46.546Z,0.50
2023-03-10T08:04:41.208Z,0.68
2023-03-10T08:07:35.763Z,0.43
2023-03-10T08:10:29.955Z,0.70
2023-03-10T08:13:24.291Z,0.55
2023-03-10T08:16:21.544Z,0.60
2023-03-10T08:19:15.823Z,0.90
2023-03-10T08:22:11.552Z,0.50
2023-03-10T08:25:05.976Z,0.60
2023-03-10T08:28:00.442Z,0.40
2023-03-10T08:31:04.323Z,0.35
2023-03-10T08:34:00.121Z,0.40
2023-03-10T08:36:54.531Z,0.40
2023-03-10T08:39:48.777Z,0.30
2023-03-10T08:42:43.221Z,0.30
2023-03-10T08:45:37.483Z,0.38
2023-03-10T08:48:31.982Z,0.20
2023-03-10T08:51:27.031Z,0.85
2023-03-10T08:54:22.984Z,0.35
2023-03-10T08:57:17.323Z,0.60
2023-03-10T09:00:16.164Z,0.70
2023-03-10T09:03:16.383Z,0.60
2023-03-10T09:06:11.078Z,0.63
2023-03-10T09:09:07.075Z,0.60
2023-03-10T09:12:01.303Z,0.70
2023-03-10T09:14:55.586Z,0.50
2023-03-10T09:17:50.078Z,0.40
2023-03-10T09:20:45.431Z,0.57
2023-03-10T09:23:41.605Z,0.52
2023-03-10T09:26:35.921Z,0.77
2023-03-10T09:29:42.774Z,0.68
2023-03-10T09:35:31.625Z,1.05
2023-03-10T09:38:26.459Z,0.75
2023-03-10T09:41:23.577Z,1.00
2023-03-10T09:47:34.368Z,0.60
2023-03-10T09:50:51.003Z,0.80
2023-03-10T09:54:01.737Z,1.00
2023-03-10T09:56:58.639Z,1.10
2023-03-10T09:59:57.090Z,1.17
2023-03-10T10:02:58.350Z,1.00
2023-03-10T10:05:56.531Z,0.90
2023-03-10T10:09:04.290Z,0.90
2023-03-10T10:11:59.033Z,0.50
2023-03-10T10:15:01.751Z,0.73
2023-03-10T10:18:21.455Z,0.47
2023-03-10T10:21:43.835Z,0.90
2023-03-10T10:24:38.085Z,1.10
2023-03-10T10:27:35.455Z,0.50
2023-03-10T10:30:43.436Z,0.85
2023-03-10T10:34:18.570Z,0.55
2023-03-10T10:37:37.308Z,0.55
2023-03-10T10:40:48.665Z,0.38
2023-03-10T10:43:45.229Z,0.50
2023-03-10T10:46:40.174Z,1.02
2023-03-10T10:49:38.078Z,0.63
2023-03-10T10:52:32.358Z,0.40
2023-03-10T10:55:35.940Z,0.45
2023-03-10T10:58:39.668Z,0.50
2023-03-10T11:01:52.629Z,0.50
2023-03-10T11:04:48.572Z,0.45
2023-03-10T11:07:43.195Z,0.30
2023-03-10T11:10:39.333Z,0.40
2023-03-10T11:13:57.204Z,0.50
2023-03-10T11:17:09.579Z,0.75
2023-03-10T11:20:29.068Z,0.60
2023-03-10T11:23:42.188Z,0.70
2023-03-10T11:27:09.367Z,0.50
2023-03-10T11:30:19.041Z,0.52
2023-03-10T11:33:28.234Z,0.47
2023-03-10T11:36:55.746Z,0.73
2023-03-10T11:40:13.153Z,0.50
2023-03-10T11:43:25.285Z,0.38
2023-03-10T11:46:45.741Z,0.80
2023-03-10T11:49:44.771Z,0.38
2023-03-10T11:52:40.227Z,0.40
2023-03-10T11:55:34.618Z,0.40
2023-03-10T11:58:34.264Z,0.40
2023-03-10T12:01:46.856Z,0.40
2023-03-10T12:05:02.327Z,0.40
2023-03-10T12:08:02.130Z,0.52
2023-03-10T12:10:57.766Z,0.50
2023-03-10T12:13:54.636Z,0.57
2023-03-10T12:16:50.172Z,0.20
2023-03-10T12:20:15.002Z,0.50
2023-03-10T12:23:12.177Z,0.50
2023-03-10T12:26:06.606Z,0.60
2023-03-10T12:29:23.134Z,0.45
2023-03-10T12:32:49.690Z,0.40
2023-03-10T12:35:51.957Z,0.52
2023-03-10T12:38:55.070Z,0.32
2023-03-10T12:41:53.397Z,0.35
2023-03-10T12:45:08.436Z,0.30
2023-03-10T12:48:19.510Z,0.50
2023-03-10T12:51:19.440Z,0.52
2023-03-10T12:54:39.511Z,0.40
2023-03-10T12:57:52.633Z,0.43
2023-03-10T13:00:46.845Z,0.55
2023-03-10T13:03:50.334Z,0.57
2023-03-10T13:06:48.012Z,0.32
2023-03-10T13:09:45.001Z,0.80
2023-03-10T13:12:49.311Z,0.52
2023-03-10T13:15:43.619Z,0.50
2023-03-10T13:18:37.958Z,0.40
2023-03-10T13:21:38.648Z,0.40
2023-03-10T13:24:36.882Z,0.80
2023-03-10T13:27:34.122Z,0.50
2023-03-10T13:33:28.962Z,0.43
2023-03-10T13:36:33.457Z,0.30
2023-03-10T13:39:29.089Z,0.43
2023-03-10T13:42:42.751Z,0.40
2023-03-10T13:45:38.337Z,0.70
2023-03-10T13:48:34.080Z,0.40
2023-03-10T13:51:32.435Z,0.55
2023-03-10T13:54:42.189Z,0.22
2023-03-10T13:57:38.051Z,0.30
2023-03-10T14:00:32.451Z,0.50
2023-03-10T14:03:26.713Z,0.60
2023-03-10T14:06:21.195Z,0.30
2023-03-10T14:09:25.103Z,0.40
2023-03-10T14:12:38.579Z,0.35
2023-03-10T14:15:39.952Z,0.38
2023-03-10T14:18:39.793Z,0.38
2023-03-10T14:21:39.142Z,0.45
2023-03-10T14:24:33.480Z,0.70
2023-03-10T14:27:29.256Z,0.55
2023-03-10T14:30:25.119Z,0.85
2023-03-10T14:33:19.368Z,0.45
2023-03-10T14:36:13.588Z,0.60
2023-03-10T14:39:09.487Z,0.40
2023-03-10T14:42:04.694Z,0.30
2023-03-10T14:45:07.272Z,0.30
2023-03-10T14:48:04.068Z,0.40
2023-03-10T14:50:58.474Z,0.38
2023-03-10T14:53:52.692Z,0.30
2023-03-10T14:56:47.519Z,0.45
2023-03-10T14:59:42.114Z,0.45
2023-03-10T15:02:36.290Z,0.68
2023-03-10T15:05:45.357Z,0.50
2023-03-10T15:08:42.422Z,0.40
2023-03-10T15:11:37.809Z,0.50
2023-03-10T15:14:32.435Z,0.50
2023-03-10T15:17:26.622Z,0.30
2023-03-10T15:20:25.911Z,0.30
2023-03-10T15:23:20.518Z,0.45
2023-03-10T15:26:15.186Z,0.50
2023-03-10T15:29:09.617Z,0.50
2023-03-10T15:32:04.099Z,0.60
2023-03-10T15:34:58.405Z,0.30
2023-03-10T15:37:53.898Z,0.40
2023-03-10T15:40:48.356Z,0.50
2023-03-10T15:43:42.554Z,0.57
2023-03-10T15:46:36.821Z,0.77
2023-03-10T15:49:31.154Z,0.50
2023-03-10T15:52:25.357Z,0.60
2023-03-10T15:55:19.735Z,0.60
2023-03-10T15:58:14.344Z,0.60
2023-03-10T16:01:13.488Z,0.50
2023-03-10T16:04:07.775Z,0.60
2023-03-10T16:07:08.454Z,0.40
2023-03-10T16:10:02.619Z,0.52
2023-03-10T16:12:56.908Z,0.60
2023-03-10T16:15:51.085Z,0.43
2023-03-10T16:18:46.811Z,0.63
2023-03-10T16:21:41.004Z,0.50
2023-03-10T16:24:35.166Z,0.50
2023-03-10T16:27:29.249Z,0.43
2023-03-10T16:30:24.295Z,0.40
2023-03-10T16:33:18.612Z,0.70
2023-03-10T16:36:16.830Z,0.55
2023-03-10T16:39:15.159Z,0.40
2023-03-10T16:42:10.591Z,0.80
2023-03-10T16:45:08.889Z,0.40
2023-03-10T16:48:03.021Z,0.43
2023-03-10T16:50:57.882Z,0.40
2023-03-10T16:53:53.529Z,0.40
2023-03-10T16:56:50.398Z,0.55
2023-03-10T16:59:45.894Z,0.68
2023-03-10T17:02:40.288Z,0.60
2023-03-10T17:05:34.854Z,0.55
2023-03-10T17:08:30.572Z,0.73
2023-03-10T17:11:26.865Z,0.65
2023-03-10T17:14:22.271Z,0.50
2023-03-10T17:17:16.823Z,0.40
2023-03-10T17:20:11.515Z,0.80
2023-03-10T17:23:05.651Z,0.60
2023-03-10T17:25:59.803Z,0.50
2023-03-10T17:28:54.443Z,0.70
2023-03-10T17:31:51.530Z,0.82
2023-03-10T17:37:39.884Z,0.57
2023-03-10T17:40:35.068Z,0.77
2023-03-10T17:43:34.042Z,0.82
2023-03-10T17:46:31.826Z,0.50
2023-03-10T17:49:26.002Z,0.40
2023-03-10T17:52:20.315Z,0.65
2023-03-10T17:55:14.599Z,0.60
2023-03-10T17:58:08.912Z,0.40
2023-03-10T18:01:17.444Z,0.63
2023-03-10T18:04:12.242Z,0.50
2023-03-10T18:07:06.456Z,0.50
2023-03-10T18:10:01.138Z,0.80
2023-03-10T18:12:55.924Z,0.70
2023-03-10T18:15:52.490Z,0.70
2023-03-10T18:18:47.334Z,0.70
2023-03-10T18:21:41.513Z,0.70
2023-03-10T18:24:35.690Z,0.50
2023-03-10T18:27:32.531Z,0.50
2023-03-10T18:30:27.186Z,0.80
2023-03-10T18:33:21.600Z,0.70
2023-03-10T18:36:15.954Z,0.47
2023-03-10T18:39:10.168Z,1.00
2023-03-10T18:42:04.374Z,0.50
2023-03-10T18:44:58.654Z,0.65
2023-03-10T18:47:52.866Z,0.55
2023-03-10T18:50:47.016Z,0.70
2023-03-10T18:53:41.622Z,0.88
2023-03-10T18:56:35.996Z,0.73
2023-03-10T18:59:30.531Z,0.85
2023-03-10T19:02:24.767Z,0.77
2023-03-10T19:05:19.029Z,0.80
2023-03-10T19:08:13.548Z,0.80
2023-03-10T19:11:08.490Z,0.63
2023-03-10T19:14:03.193Z,0.60
2023-03-10T19:16:57.383Z,0.70
2023-03-10T19:19:51.570Z,0.90
2023-03-10T19:22:50.640Z,0.50
2023-03-10T19:25:44.963Z,0.82
2023-03-10T19:28:40.001Z,0.50
2023-03-10T19:31:34.332Z,0.57
2023-03-10T19:34:28.665Z,0.60
2023-03-10T19:37:23.341Z,0.60
2023-03-10T19:40:20.222Z,0.65
2023-03-10T19:43:14.378Z,0.50
2023-03-10T19:46:10.749Z,0.47
2023-03-10T19:49:06.478Z,0.70
2023-03-10T19:52:01.026Z,0.70
2023-03-10T19:54:55.434Z,0.70
2023-03-10T19:57:50.552Z,0.75
2023-03-10T20:00:47.224Z,0.40
2023-03-10T20:03:41.590Z,0.80
2023-03-10T20:06:35.766Z,0.70
2023-03-10T20:09:29.952Z,0.65
2023-03-10T20:12:24.101Z,0.70
2023-03-10T20:15:18.493Z,0.50
2023-03-10T20:18:12.676Z,0.50
2023-03-10T20:21:07.569Z,0.60
2023-03-10T20:24:01.772Z,0.68
2023-03-10T20:26:57.235Z,0.60
2023-03-10T20:29:51.485Z,0.60
2023-03-10T20:32:46.100Z,0.65
2023-03-10T20:35:40.538Z,0.55
2023-03-10T20:38:34.728Z,0.52
2023-03-10T20:41:29.042Z,0.50
2023-03-10T20:44:23.247Z,0.68
2023-03-10T20:47:17.353Z,0.57
2023-03-10T20:50:14.059Z,0.75
2023-03-10T20:53:08.324Z,0.73
2023-03-10T20:56:03.172Z,0.60
2023-03-10T20:59:00.673Z,0.52
2023-03-10T21:01:55.009Z,0.93
2023-03-10T21:04:50.289Z,0.90
2023-03-10T21:07:44.642Z,1.30
2023-03-10T21:10:40.121Z,1.35
2023-03-10T21:13:34.364Z,1.10
2023-03-10T21:16:29.488Z,1.17
2023-03-10T21:19:23.632Z,1.20
2023-03-10T21:22:17.894Z,1.30
2023-03-10T21:25:19.448Z,1.58
2023-03-10T21:28:13.586Z,1.95
2023-03-10T21:31:10.067Z,1.75
2023-03-10T21:34:05.356Z,1.23
2023-03-10T21:37:00.289Z,1.13
2023-03-10T21:39:57.768Z,1.45
2023-03-10T21:42:52.124Z,1.42
2023-03-10T21:45:46.833Z,1.42
2023-03-10T21:48:40.973Z,1.60
2023-03-10T21:51:36.214Z,1.20
2023-03-10T21:54:30.718Z,1.30
2023-03-10T21:57:25.344Z,1.30
2023-03-10T22:00:24.320Z,1.08
2023-03-10T22:03:19.657Z,1.15
2023-03-10T22:06:13.943Z,1.10
2023-03-10T22:09:08.385Z,0.88
2023-03-10T22:12:02.562Z,0.90
2023-03-10T22:14:58.938Z,0.90
2023-03-10T22:17:54.089Z,0.77
2023-03-10T22:20:48.372Z,0.70
2023-03-10T22:23:42.526Z,0.70
2023-03-10T22:26:36.670Z,0.80
2023-03-10T22:29:30.745Z,0.63
2023-03-10T22:32:25.038Z,0.52
2023-03-10T22:35:19.509Z,0.60
2023-03-10T22:38:14.833Z,0.70
2023-03-10T22:41:15.624Z,0.90
2023-03-10T22:44:09.828Z,0.95
2023-03-10T22:47:04.471Z,1.00
2023-03-10T22:49:58.814Z,0.60
2023-03-10T22:52:53.228Z,0.50
2023-03-10T22:55:49.097Z,0.50
2023-03-10T22:58:43.340Z,0.40
2023-03-10T23:01:37.764Z,0.50
2023-03-10T23:04:31.890Z,0.45
2023-03-10T23:07:26.127Z,0.40
2023-03-10T23:10:26.655Z,0.20
2023-03-10T23:13:20.843Z,0.17
2023-03-10T23:16:15.422Z,0.32
2023-03-10T23:19:10.542Z,0.20
2023-03-10T23:22:04.932Z,0.43
2023-03-10T23:24:59.538Z,0.38
2023-03-10T23:27:54.591Z,0.30
2023-03-10T23:30:50.219Z,0.50
2023-03-10T23:33:45.541Z,0.40
2023-03-10T23:36:40.135Z,0.50
2023-03-10T23:39:34.289Z,0.55
2023-03-10T23:42:28.573Z,0.30
2023-03-10T23:45:24.564Z,0.40
2023-03-10T23:48:20.570Z,0.47
2023-03-10T23:51:16.157Z,0.50
2023-03-10T23:54:10.381Z,0.20
2023-03-10T23:57:04.548Z,0.40
2023-03-10T23:59:58.746Z,0.40
